sensor_id;sensor_type;location;lat;lon;timestamp;P1;durP1;ratioP1;P2;durP2;ratioP2
56770;SDS011;42641;59.794;17.616;2023-04-25T00:00:48;7.63;;;5.30;;
56770;SDS011;42641;59.794;17.616;2023-04-25T00:03:14;7.40;;;4.70;;
56770;SDS011;42641;59.794;17.616;2023-04-25T00:05:42;7.00;;;5.00;;
56770;SDS011;42641;59.794;17.616;2023-04-25T00:08:09;4.60;;;4.17;;
56770;SDS011;42641;59.794;17.616;2023-04-25T00:10:36;6.40;;;4.20;;
56770;SDS011;42641;59.794;17.616;2023-04-25T00:13:02;4.83;;;4.20;;
56770;SDS011;42641;59.794;17.616;2023-04-25T00:15:29;5.83;;;3.97;;
56770;SDS011;42641;59.794;17.616;2023-04-25T00:17:56;5.73;;;4.20;;
56770;SDS011;42641;59.794;17.616;2023-04-25T00:20:23;5.83;;;4.47;;
56770;SDS011;42641;59.794;17.616;2023-04-25T00:22:51;5.00;;;3.80;;
56770;SDS011;42641;59.794;17.616;2023-04-25T00:25:19;4.17;;;3.67;;
56770;SDS011;42641;59.794;17.616;2023-04-25T00:27:45;5.37;;;3.93;;
56770;SDS011;42641;59.794;17.616;2023-04-25T00:30:12;3.90;;;3.50;;
56770;SDS011;42641;59.794;17.616;2023-04-25T00:32:39;6.73;;;4.20;;
56770;SDS011;42641;59.794;17.616;2023-04-25T00:35:06;4.97;;;3.77;;
56770;SDS011;42641;59.794;17.616;2023-04-25T00:37:32;4.40;;;3.67;;
56770;SDS011;42641;59.794;17.616;2023-04-25T00:39:59;6.37;;;4.17;;
56770;SDS011;42641;59.794;17.616;2023-04-25T00:42:26;5.10;;;3.77;;
56770;SDS011;42641;59.794;17.616;2023-04-25T00:44:53;4.70;;;3.83;;
56770;SDS011;42641;59.794;17.616;2023-04-25T00:47:20;6.43;;;4.07;;
56770;SDS011;42641;59.794;17.616;2023-04-25T00:49:47;4.17;;;3.77;;
56770;SDS011;42641;59.794;17.616;2023-04-25T00:52:13;5.47;;;4.00;;
56770;SDS011;42641;59.794;17.616;2023-04-25T00:54:40;5.90;;;4.17;;
56770;SDS011;42641;59.794;17.616;2023-04-25T00:57:06;8.13;;;4.07;;
56770;SDS011;42641;59.794;17.616;2023-04-25T00:59:33;6.90;;;4.00;;
56770;SDS011;42641;59.794;17.616;2023-04-25T01:02:01;4.43;;;4.03;;
56770;SDS011;42641;59.794;17.616;2023-04-25T01:04:28;5.83;;;4.10;;
56770;SDS011;42641;59.794;17.616;2023-04-25T01:06:55;7.33;;;4.33;;
56770;SDS011;42641;59.794;17.616;2023-04-25T01:09:21;5.37;;;3.70;;
56770;SDS011;42641;59.794;17.616;2023-04-25T01:11:49;5.67;;;4.43;;
56770;SDS011;42641;59.794;17.616;2023-04-25T01:14:16;5.50;;;4.50;;
56770;SDS011;42641;59.794;17.616;2023-04-25T01:16:42;6.57;;;4.70;;
56770;SDS011;42641;59.794;17.616;2023-04-25T01:19:10;5.90;;;4.30;;
56770;SDS011;42641;59.794;17.616;2023-04-25T01:21:38;5.70;;;4.60;;
56770;SDS011;42641;59.794;17.616;2023-04-25T01:24:04;5.57;;;4.20;;
56770;SDS011;42641;59.794;17.616;2023-04-25T01:26:32;4.47;;;3.80;;
56770;SDS011;42641;59.794;17.616;2023-04-25T01:29:00;4.90;;;4.20;;
56770;SDS011;42641;59.794;17.616;2023-04-25T01:31:27;5.40;;;4.53;;
56770;SDS011;42641;59.794;17.616;2023-04-25T01:33:54;5.83;;;4.73;;
56770;SDS011;42641;59.794;17.616;2023-04-25T01:36:21;5.53;;;4.50;;
56770;SDS011;42641;59.794;17.616;2023-04-25T01:38:47;10.27;;;4.30;;
56770;SDS011;42641;59.794;17.616;2023-04-25T01:41:15;5.03;;;4.03;;
56770;SDS011;42641;59.794;17.616;2023-04-25T01:43:43;6.60;;;4.40;;
56770;SDS011;42641;59.794;17.616;2023-04-25T01:46:11;6.23;;;4.10;;
56770;SDS011;42641;59.794;17.616;2023-04-25T01:48:38;9.20;;;4.90;;
56770;SDS011;42641;59.794;17.616;2023-04-25T01:51:06;6.60;;;4.70;;
56770;SDS011;42641;59.794;17.616;2023-04-25T01:53:32;5.27;;;4.30;;
56770;SDS011;42641;59.794;17.616;2023-04-25T01:56:01;6.30;;;4.73;;
56770;SDS011;42641;59.794;17.616;2023-04-25T01:58:32;6.13;;;4.50;;
56770;SDS011;42641;59.794;17.616;2023-04-25T02:01:14;7.50;;;4.40;;
56770;SDS011;42641;59.794;17.616;2023-04-25T02:03:46;6.43;;;4.67;;
56770;SDS011;42641;59.794;17.616;2023-04-25T02:06:22;7.93;;;4.63;;
56770;SDS011;42641;59.794;17.616;2023-04-25T02:08:51;7.60;;;4.67;;
56770;SDS011;42641;59.794;17.616;2023-04-25T02:11:17;5.30;;;4.73;;
56770;SDS011;42641;59.794;17.616;2023-04-25T02:13:56;5.27;;;4.10;;
56770;SDS011;42641;59.794;17.616;2023-04-25T02:16:42;6.80;;;4.30;;
56770;SDS011;42641;59.794;17.616;2023-04-25T02:19:09;6.43;;;4.90;;
56770;SDS011;42641;59.794;17.616;2023-04-25T02:21:36;5.77;;;4.27;;
56770;SDS011;42641;59.794;17.616;2023-04-25T02:24:03;4.47;;;3.53;;
56770;SDS011;42641;59.794;17.616;2023-04-25T02:26:30;6.10;;;3.97;;
56770;SDS011;42641;59.794;17.616;2023-04-25T02:28:56;6.70;;;4.17;;
56770;SDS011;42641;59.794;17.616;2023-04-25T02:31:23;4.50;;;3.93;;
56770;SDS011;42641;59.794;17.616;2023-04-25T02:33:50;4.47;;;3.50;;
56770;SDS011;42641;59.794;17.616;2023-04-25T02:36:17;5.53;;;4.10;;
56770;SDS011;42641;59.794;17.616;2023-04-25T02:38:43;4.50;;;3.70;;
56770;SDS011;42641;59.794;17.616;2023-04-25T02:41:10;4.33;;;3.70;;
56770;SDS011;42641;59.794;17.616;2023-04-25T02:43:36;4.67;;;3.27;;
56770;SDS011;42641;59.794;17.616;2023-04-25T02:46:03;4.53;;;3.87;;
56770;SDS011;42641;59.794;17.616;2023-04-25T02:48:30;7.00;;;4.20;;
56770;SDS011;42641;59.794;17.616;2023-04-25T02:50:57;5.40;;;3.57;;
56770;SDS011;42641;59.794;17.616;2023-04-25T02:53:23;7.83;;;4.00;;
56770;SDS011;42641;59.794;17.616;2023-04-25T02:55:52;3.63;;;3.20;;
56770;SDS011;42641;59.794;17.616;2023-04-25T02:58:18;5.43;;;3.87;;
56770;SDS011;42641;59.794;17.616;2023-04-25T03:00:48;5.83;;;3.80;;
56770;SDS011;42641;59.794;17.616;2023-04-25T03:03:16;7.67;;;3.70;;
56770;SDS011;42641;59.794;17.616;2023-04-25T03:05:51;5.60;;;3.60;;
56770;SDS011;42641;59.794;17.616;2023-04-25T03:08:23;4.40;;;3.60;;
56770;SDS011;42641;59.794;17.616;2023-04-25T03:10:50;3.93;;;3.10;;
56770;SDS011;42641;59.794;17.616;2023-04-25T03:13:19;4.90;;;3.57;;
56770;SDS011;42641;59.794;17.616;2023-04-25T03:15:46;6.00;;;3.80;;
56770;SDS011;42641;59.794;17.616;2023-04-25T03:18:12;4.03;;;3.63;;
56770;SDS011;42641;59.794;17.616;2023-04-25T03:20:39;4.23;;;3.50;;
56770;SDS011;42641;59.794;17.616;2023-04-25T03:23:08;4.93;;;3.70;;
56770;SDS011;42641;59.794;17.616;2023-04-25T03:25:35;5.07;;;3.60;;
56770;SDS011;42641;59.794;17.616;2023-04-25T03:28:01;4.13;;;3.43;;
56770;SDS011;42641;59.794;17.616;2023-04-25T03:30:28;3.50;;;3.20;;
56770;SDS011;42641;59.794;17.616;2023-04-25T03:32:54;3.47;;;3.03;;
56770;SDS011;42641;59.794;17.616;2023-04-25T03:35:21;3.43;;;3.13;;
56770;SDS011;42641;59.794;17.616;2023-04-25T03:37:49;3.10;;;2.80;;
56770;SDS011;42641;59.794;17.616;2023-04-25T03:40:20;3.37;;;2.90;;
56770;SDS011;42641;59.794;17.616;2023-04-25T03:43:11;4.03;;;3.30;;
56770;SDS011;42641;59.794;17.616;2023-04-25T03:45:40;4.00;;;3.17;;
56770;SDS011;42641;59.794;17.616;2023-04-25T03:48:07;3.80;;;3.00;;
56770;SDS011;42641;59.794;17.616;2023-04-25T03:50:34;3.90;;;2.90;;
56770;SDS011;42641;59.794;17.616;2023-04-25T03:53:00;4.87;;;3.30;;
56770;SDS011;42641;59.794;17.616;2023-04-25T03:55:30;3.03;;;2.73;;
56770;SDS011;42641;59.794;17.616;2023-04-25T03:57:57;4.63;;;3.07;;
56770;SDS011;42641;59.794;17.616;2023-04-25T04:00:24;3.20;;;2.80;;
56770;SDS011;42641;59.794;17.616;2023-04-25T04:02:52;4.03;;;3.00;;
56770;SDS011;42641;59.794;17.616;2023-04-25T04:05:18;3.50;;;2.70;;
56770;SDS011;42641;59.794;17.616;2023-04-25T04:07:51;3.10;;;2.80;;
56770;SDS011;42641;59.794;17.616;2023-04-25T04:10:18;3.33;;;2.70;;
56770;SDS011;42641;59.794;17.616;2023-04-25T04:12:44;3.97;;;3.00;;
56770;SDS011;42641;59.794;17.616;2023-04-25T04:15:11;4.60;;;3.00;;
56770;SDS011;42641;59.794;17.616;2023-04-25T04:17:38;4.53;;;3.00;;
56770;SDS011;42641;59.794;17.616;2023-04-25T04:20:07;3.73;;;3.10;;
56770;SDS011;42641;59.794;17.616;2023-04-25T04:22:34;3.40;;;2.80;;
56770;SDS011;42641;59.794;17.616;2023-04-25T04:25:06;4.27;;;3.20;;
56770;SDS011;42641;59.794;17.616;2023-04-25T04:27:51;5.47;;;3.13;;
56770;SDS011;42641;59.794;17.616;2023-04-25T04:30:41;3.50;;;3.07;;
56770;SDS011;42641;59.794;17.616;2023-04-25T04:33:08;4.80;;;3.00;;
56770;SDS011;42641;59.794;17.616;2023-04-25T04:35:35;4.37;;;3.20;;
56770;SDS011;42641;59.794;17.616;2023-04-25T04:38:02;4.90;;;3.80;;
56770;SDS011;42641;59.794;17.616;2023-04-25T04:40:32;4.03;;;3.13;;
56770;SDS011;42641;59.794;17.616;2023-04-25T04:43:09;3.77;;;3.00;;
56770;SDS011;42641;59.794;17.616;2023-04-25T04:45:38;4.40;;;3.47;;
56770;SDS011;42641;59.794;17.616;2023-04-25T04:48:32;3.37;;;2.97;;
56770;SDS011;42641;59.794;17.616;2023-04-25T04:51:29;5.07;;;3.10;;
56770;SDS011;42641;59.794;17.616;2023-04-25T04:54:07;4.00;;;3.40;;
56770;SDS011;42641;59.794;17.616;2023-04-25T04:56:52;4.83;;;3.17;;
56770;SDS011;42641;59.794;17.616;2023-04-25T04:59:21;3.27;;;2.97;;
56770;SDS011;42641;59.794;17.616;2023-04-25T05:02:07;3.97;;;2.73;;
56770;SDS011;42641;59.794;17.616;2023-04-25T05:04:59;3.20;;;2.90;;
56770;SDS011;42641;59.794;17.616;2023-04-25T05:07:25;3.40;;;3.10;;
56770;SDS011;42641;59.794;17.616;2023-04-25T05:10:27;3.23;;;2.90;;
56770;SDS011;42641;59.794;17.616;2023-04-25T05:13:10;3.00;;;2.60;;
56770;SDS011;42641;59.794;17.616;2023-04-25T05:16:02;3.40;;;2.93;;
56770;SDS011;42641;59.794;17.616;2023-04-25T05:18:48;4.20;;;2.70;;
56770;SDS011;42641;59.794;17.616;2023-04-25T05:21:33;3.60;;;3.00;;
56770;SDS011;42641;59.794;17.616;2023-04-25T05:24:29;4.47;;;3.10;;
56770;SDS011;42641;59.794;17.616;2023-04-25T05:27:15;2.50;;;2.30;;
56770;SDS011;42641;59.794;17.616;2023-04-25T05:30:03;3.07;;;2.60;;
56770;SDS011;42641;59.794;17.616;2023-04-25T05:32:51;2.87;;;2.33;;
56770;SDS011;42641;59.794;17.616;2023-04-25T05:35:18;3.57;;;2.87;;
56770;SDS011;42641;59.794;17.616;2023-04-25T05:37:47;3.07;;;2.67;;
56770;SDS011;42641;59.794;17.616;2023-04-25T05:40:14;3.57;;;2.60;;
56770;SDS011;42641;59.794;17.616;2023-04-25T05:42:43;3.97;;;2.90;;
56770;SDS011;42641;59.794;17.616;2023-04-25T05:45:22;3.77;;;2.70;;
56770;SDS011;42641;59.794;17.616;2023-04-25T05:48:07;2.80;;;2.50;;
56770;SDS011;42641;59.794;17.616;2023-04-25T05:50:52;2.50;;;2.30;;
56770;SDS011;42641;59.794;17.616;2023-04-25T05:53:45;3.30;;;2.70;;
56770;SDS011;42641;59.794;17.616;2023-04-25T05:56:13;2.60;;;2.30;;
56770;SDS011;42641;59.794;17.616;2023-04-25T05:58:40;3.27;;;2.87;;
56770;SDS011;42641;59.794;17.616;2023-04-25T06:01:07;2.83;;;2.53;;
56770;SDS011;42641;59.794;17.616;2023-04-25T06:03:34;4.93;;;2.47;;
56770;SDS011;42641;59.794;17.616;2023-04-25T06:06:01;2.90;;;2.40;;
56770;SDS011;42641;59.794;17.616;2023-04-25T06:08:27;2.90;;;2.40;;
56770;SDS011;42641;59.794;17.616;2023-04-25T06:10:54;3.10;;;2.60;;
56770;SDS011;42641;59.794;17.616;2023-04-25T06:13:22;2.50;;;2.30;;
56770;SDS011;42641;59.794;17.616;2023-04-25T06:15:49;3.03;;;2.60;;
56770;SDS011;42641;59.794;17.616;2023-04-25T06:18:15;2.83;;;2.53;;
56770;SDS011;42641;59.794;17.616;2023-04-25T06:20:42;2.70;;;2.50;;
56770;SDS011;42641;59.794;17.616;2023-04-25T06:23:09;2.67;;;2.17;;
56770;SDS011;42641;59.794;17.616;2023-04-25T06:25:58;2.50;;;2.17;;
56770;SDS011;42641;59.794;17.616;2023-04-25T06:28:25;2.53;;;2.23;;
56770;SDS011;42641;59.794;17.616;2023-04-25T06:30:53;2.90;;;2.47;;
56770;SDS011;42641;59.794;17.616;2023-04-25T06:33:20;2.50;;;2.30;;
56770;SDS011;42641;59.794;17.616;2023-04-25T06:35:48;5.47;;;2.23;;
56770;SDS011;42641;59.794;17.616;2023-04-25T06:38:17;3.30;;;2.60;;
56770;SDS011;42641;59.794;17.616;2023-04-25T06:40:47;2.60;;;2.20;;
56770;SDS011;42641;59.794;17.616;2023-04-25T06:43:14;2.77;;;2.27;;
56770;SDS011;42641;59.794;17.616;2023-04-25T06:45:55;2.20;;;2.00;;
56770;SDS011;42641;59.794;17.616;2023-04-25T06:48:23;2.37;;;2.13;;
56770;SDS011;42641;59.794;17.616;2023-04-25T06:50:50;2.17;;;1.93;;
56770;SDS011;42641;59.794;17.616;2023-04-25T06:53:17;2.30;;;2.10;;
56770;SDS011;42641;59.794;17.616;2023-04-25T06:55:47;4.47;;;2.50;;
56770;SDS011;42641;59.794;17.616;2023-04-25T06:58:19;5.20;;;2.40;;
56770;SDS011;42641;59.794;17.616;2023-04-25T07:01:21;4.47;;;2.30;;
56770;SDS011;42641;59.794;17.616;2023-04-25T07:03:48;3.13;;;2.03;;
56770;SDS011;42641;59.794;17.616;2023-04-25T07:06:17;2.97;;;2.27;;
56770;SDS011;42641;59.794;17.616;2023-04-25T07:08:44;3.13;;;1.97;;
56770;SDS011;42641;59.794;17.616;2023-04-25T07:11:11;3.97;;;2.00;;
56770;SDS011;42641;59.794;17.616;2023-04-25T07:13:37;2.77;;;2.30;;
56770;SDS011;42641;59.794;17.616;2023-04-25T07:16:03;2.57;;;2.10;;
56770;SDS011;42641;59.794;17.616;2023-04-25T07:18:32;4.80;;;2.30;;
56770;SDS011;42641;59.794;17.616;2023-04-25T07:20:59;2.67;;;2.17;;
56770;SDS011;42641;59.794;17.616;2023-04-25T07:23:26;1.77;;;1.47;;
56770;SDS011;42641;59.794;17.616;2023-04-25T07:25:53;5.43;;;1.73;;
56770;SDS011;42641;59.794;17.616;2023-04-25T07:28:22;1.83;;;1.60;;
56770;SDS011;42641;59.794;17.616;2023-04-25T07:30:48;2.23;;;1.80;;
56770;SDS011;42641;59.794;17.616;2023-04-25T07:33:15;2.87;;;2.13;;
56770;SDS011;42641;59.794;17.616;2023-04-25T07:35:41;2.00;;;1.80;;
56770;SDS011;42641;59.794;17.616;2023-04-25T07:38:07;3.37;;;3.00;;
56770;SDS011;42641;59.794;17.616;2023-04-25T07:40:36;1.83;;;1.70;;
56770;SDS011;42641;59.794;17.616;2023-04-25T07:43:06;2.40;;;1.90;;
56770;SDS011;42641;59.794;17.616;2023-04-25T07:45:40;2.43;;;1.70;;
56770;SDS011;42641;59.794;17.616;2023-04-25T07:48:07;3.33;;;2.07;;
56770;SDS011;42641;59.794;17.616;2023-04-25T07:50:36;1.90;;;1.60;;
56770;SDS011;42641;59.794;17.616;2023-04-25T07:53:03;2.13;;;1.90;;
56770;SDS011;42641;59.794;17.616;2023-04-25T07:55:40;2.60;;;1.33;;
56770;SDS011;42641;59.794;17.616;2023-04-25T07:58:14;4.80;;;4.37;;
56770;SDS011;42641;59.794;17.616;2023-04-25T08:00:44;1.53;;;1.43;;
56770;SDS011;42641;59.794;17.616;2023-04-25T08:03:42;1.60;;;1.47;;
56770;SDS011;42641;59.794;17.616;2023-04-25T08:06:15;1.60;;;1.40;;
56770;SDS011;42641;59.794;17.616;2023-04-25T08:08:50;2.30;;;1.80;;
56770;SDS011;42641;59.794;17.616;2023-04-25T08:11:19;1.90;;;1.67;;
56770;SDS011;42641;59.794;17.616;2023-04-25T08:13:46;1.70;;;1.50;;
56770;SDS011;42641;59.794;17.616;2023-04-25T08:16:12;1.53;;;1.43;;
56770;SDS011;42641;59.794;17.616;2023-04-25T08:18:38;1.60;;;1.50;;
56770;SDS011;42641;59.794;17.616;2023-04-25T08:21:05;1.40;;;1.30;;
56770;SDS011;42641;59.794;17.616;2023-04-25T08:23:32;1.60;;;1.50;;
56770;SDS011;42641;59.794;17.616;2023-04-25T08:26:03;1.77;;;1.40;;
56770;SDS011;42641;59.794;17.616;2023-04-25T08:28:33;1.77;;;1.50;;
56770;SDS011;42641;59.794;17.616;2023-04-25T08:31:01;1.70;;;1.60;;
56770;SDS011;42641;59.794;17.616;2023-04-25T08:33:34;2.00;;;1.70;;
56770;SDS011;42641;59.794;17.616;2023-04-25T08:36:10;1.47;;;1.37;;
56770;SDS011;42641;59.794;17.616;2023-04-25T08:38:37;1.63;;;1.50;;
56770;SDS011;42641;59.794;17.616;2023-04-25T08:41:06;1.90;;;1.80;;
56770;SDS011;42641;59.794;17.616;2023-04-25T08:43:33;2.10;;;1.67;;
56770;SDS011;42641;59.794;17.616;2023-04-25T08:46:01;1.80;;;1.70;;
56770;SDS011;42641;59.794;17.616;2023-04-25T08:48:38;2.17;;;1.80;;
56770;SDS011;42641;59.794;17.616;2023-04-25T08:51:08;2.00;;;1.80;;
56770;SDS011;42641;59.794;17.616;2023-04-25T08:53:41;3.07;;;1.77;;
56770;SDS011;42641;59.794;17.616;2023-04-25T08:56:08;2.10;;;1.77;;
56770;SDS011;42641;59.794;17.616;2023-04-25T08:58:39;1.90;;;1.70;;
56770;SDS011;42641;59.794;17.616;2023-04-25T09:01:06;2.53;;;2.13;;
56770;SDS011;42641;59.794;17.616;2023-04-25T09:03:40;2.83;;;2.53;;
56770;SDS011;42641;59.794;17.616;2023-04-25T09:06:09;2.47;;;2.03;;
56770;SDS011;42641;59.794;17.616;2023-04-25T09:08:37;1.70;;;1.60;;
56770;SDS011;42641;59.794;17.616;2023-04-25T09:11:09;2.17;;;1.87;;
56770;SDS011;42641;59.794;17.616;2023-04-25T09:13:35;2.70;;;2.00;;
56770;SDS011;42641;59.794;17.616;2023-04-25T09:16:19;2.93;;;1.87;;
56770;SDS011;42641;59.794;17.616;2023-04-25T09:22:02;1.97;;;1.80;;
56770;SDS011;42641;59.794;17.616;2023-04-25T09:24:34;2.80;;;1.97;;
56770;SDS011;42641;59.794;17.616;2023-04-25T09:27:11;2.60;;;2.00;;
56770;SDS011;42641;59.794;17.616;2023-04-25T09:29:40;2.40;;;2.00;;
56770;SDS011;42641;59.794;17.616;2023-04-25T09:32:14;2.40;;;1.87;;
56770;SDS011;42641;59.794;17.616;2023-04-25T09:34:42;5.07;;;2.00;;
56770;SDS011;42641;59.794;17.616;2023-04-25T09:37:11;2.07;;;1.77;;
56770;SDS011;42641;59.794;17.616;2023-04-25T09:39:58;1.90;;;1.70;;
56770;SDS011;42641;59.794;17.616;2023-04-25T09:42:30;2.57;;;1.90;;
56770;SDS011;42641;59.794;17.616;2023-04-25T09:44:58;2.10;;;1.80;;
56770;SDS011;42641;59.794;17.616;2023-04-25T09:47:25;2.63;;;2.00;;
56770;SDS011;42641;59.794;17.616;2023-04-25T09:49:54;2.07;;;1.77;;
56770;SDS011;42641;59.794;17.616;2023-04-25T09:52:22;2.00;;;1.80;;
56770;SDS011;42641;59.794;17.616;2023-04-25T09:55:00;2.60;;;1.93;;
56770;SDS011;42641;59.794;17.616;2023-04-25T09:57:33;1.80;;;1.70;;
56770;SDS011;42641;59.794;17.616;2023-04-25T10:00:01;2.90;;;2.07;;
56770;SDS011;42641;59.794;17.616;2023-04-25T10:02:40;1.70;;;1.60;;
56770;SDS011;42641;59.794;17.616;2023-04-25T10:05:17;1.87;;;1.60;;
56770;SDS011;42641;59.794;17.616;2023-04-25T10:07:44;2.30;;;1.93;;
56770;SDS011;42641;59.794;17.616;2023-04-25T10:10:15;2.43;;;1.80;;
56770;SDS011;42641;59.794;17.616;2023-04-25T10:12:45;3.10;;;2.07;;
56770;SDS011;42641;59.794;17.616;2023-04-25T10:15:12;1.80;;;1.70;;
56770;SDS011;42641;59.794;17.616;2023-04-25T10:17:40;2.07;;;1.70;;
56770;SDS011;42641;59.794;17.616;2023-04-25T10:20:07;2.70;;;1.90;;
56770;SDS011;42641;59.794;17.616;2023-04-25T10:22:44;2.10;;;1.80;;
56770;SDS011;42641;59.794;17.616;2023-04-25T10:25:11;2.93;;;2.13;;
56770;SDS011;42641;59.794;17.616;2023-04-25T10:27:39;2.30;;;1.90;;
56770;SDS011;42641;59.794;17.616;2023-04-25T10:32:44;2.97;;;2.20;;
56770;SDS011;42641;59.794;17.616;2023-04-25T10:35:12;2.30;;;1.60;;
56770;SDS011;42641;59.794;17.616;2023-04-25T10:40:26;2.10;;;1.90;;
56770;SDS011;42641;59.794;17.616;2023-04-25T10:42:53;3.00;;;2.00;;
56770;SDS011;42641;59.794;17.616;2023-04-25T10:45:21;2.77;;;1.90;;
56770;SDS011;42641;59.794;17.616;2023-04-25T10:47:47;2.03;;;1.73;;
56770;SDS011;42641;59.794;17.616;2023-04-25T10:50:14;2.17;;;1.77;;
56770;SDS011;42641;59.794;17.616;2023-04-25T10:52:44;1.73;;;1.60;;
56770;SDS011;42641;59.794;17.616;2023-04-25T10:55:11;2.27;;;1.77;;
56770;SDS011;42641;59.794;17.616;2023-04-25T10:57:42;1.70;;;1.60;;
56770;SDS011;42641;59.794;17.616;2023-04-25T11:00:18;1.73;;;1.50;;
56770;SDS011;42641;59.794;17.616;2023-04-25T11:02:53;2.17;;;1.90;;
56770;SDS011;42641;59.794;17.616;2023-04-25T11:05:34;2.30;;;2.10;;
56770;SDS011;42641;59.794;17.616;2023-04-25T11:08:03;3.60;;;2.10;;
56770;SDS011;42641;59.794;17.616;2023-04-25T11:10:37;2.00;;;1.80;;
56770;SDS011;42641;59.794;17.616;2023-04-25T11:13:06;4.40;;;1.60;;
56770;SDS011;42641;59.794;17.616;2023-04-25T11:15:32;1.67;;;1.57;;
56770;SDS011;42641;59.794;17.616;2023-04-25T11:17:59;2.00;;;1.80;;
56770;SDS011;42641;59.794;17.616;2023-04-25T11:20:25;1.80;;;1.60;;
56770;SDS011;42641;59.794;17.616;2023-04-25T11:22:54;1.67;;;1.57;;
56770;SDS011;42641;59.794;17.616;2023-04-25T11:25:24;1.97;;;1.87;;
56770;SDS011;42641;59.794;17.616;2023-04-25T11:27:52;2.17;;;1.90;;
56770;SDS011;42641;59.794;17.616;2023-04-25T11:30:19;2.20;;;2.00;;
56770;SDS011;42641;59.794;17.616;2023-04-25T11:32:47;2.10;;;1.90;;
56770;SDS011;42641;59.794;17.616;2023-04-25T11:35:13;1.77;;;1.67;;
56770;SDS011;42641;59.794;17.616;2023-04-25T11:37:41;2.00;;;1.80;;
56770;SDS011;42641;59.794;17.616;2023-04-25T11:40:09;2.97;;;1.93;;
56770;SDS011;42641;59.794;17.616;2023-04-25T11:42:39;2.33;;;2.13;;
56770;SDS011;42641;59.794;17.616;2023-04-25T11:45:10;2.97;;;2.30;;
56770;SDS011;42641;59.794;17.616;2023-04-25T11:47:37;2.87;;;2.23;;
56770;SDS011;42641;59.794;17.616;2023-04-25T11:50:05;2.03;;;1.83;;
56770;SDS011;42641;59.794;17.616;2023-04-25T11:55:04;2.00;;;1.80;;
56770;SDS011;42641;59.794;17.616;2023-04-25T11:57:35;2.30;;;2.10;;
56770;SDS011;42641;59.794;17.616;2023-04-25T12:00:13;2.20;;;2.00;;
56770;SDS011;42641;59.794;17.616;2023-04-25T12:02:43;2.27;;;2.07;;
56770;SDS011;42641;59.794;17.616;2023-04-25T12:05:11;2.30;;;2.10;;
56770;SDS011;42641;59.794;17.616;2023-04-25T12:07:39;1.80;;;1.70;;
56770;SDS011;42641;59.794;17.616;2023-04-25T12:12:34;2.47;;;2.20;;
56770;SDS011;42641;59.794;17.616;2023-04-25T12:15:47;2.53;;;2.17;;
56770;SDS011;42641;59.794;17.616;2023-04-25T12:17:52;2.67;;;2.33;;
56770;SDS011;42641;59.794;17.616;2023-04-25T12:20:26;3.27;;;2.40;;
56770;SDS011;42641;59.794;17.616;2023-04-25T12:22:52;3.67;;;2.37;;
56770;SDS011;42641;59.794;17.616;2023-04-25T12:25:35;2.97;;;2.60;;
56770;SDS011;42641;59.794;17.616;2023-04-25T12:28:14;2.83;;;2.40;;
56770;SDS011;42641;59.794;17.616;2023-04-25T12:33:25;3.90;;;2.57;;
56770;SDS011;42641;59.794;17.616;2023-04-25T12:35:53;2.63;;;2.40;;
56770;SDS011;42641;59.794;17.616;2023-04-25T12:38:21;2.73;;;2.20;;
56770;SDS011;42641;59.794;17.616;2023-04-25T12:40:52;2.40;;;2.20;;
56770;SDS011;42641;59.794;17.616;2023-04-25T12:43:19;2.47;;;2.27;;
56770;SDS011;42641;59.794;17.616;2023-04-25T12:45:50;2.90;;;2.60;;
56770;SDS011;42641;59.794;17.616;2023-04-25T12:48:18;3.53;;;2.30;;
56770;SDS011;42641;59.794;17.616;2023-04-25T12:50:45;2.43;;;2.23;;
56770;SDS011;42641;59.794;17.616;2023-04-25T12:53:15;2.30;;;2.10;;
56770;SDS011;42641;59.794;17.616;2023-04-25T12:55:45;2.57;;;2.33;;
56770;SDS011;42641;59.794;17.616;2023-04-25T12:58:13;2.90;;;2.30;;
56770;SDS011;42641;59.794;17.616;2023-04-25T13:00:39;3.03;;;2.23;;
56770;SDS011;42641;59.794;17.616;2023-04-25T13:03:06;3.37;;;2.43;;
56770;SDS011;42641;59.794;17.616;2023-04-25T13:05:33;3.33;;;2.50;;
56770;SDS011;42641;59.794;17.616;2023-04-25T13:07:59;2.43;;;2.23;;
56770;SDS011;42641;59.794;17.616;2023-04-25T13:10:26;3.10;;;2.43;;
56770;SDS011;42641;59.794;17.616;2023-04-25T13:12:52;2.43;;;2.23;;
56770;SDS011;42641;59.794;17.616;2023-04-25T13:15:19;2.50;;;2.30;;
56770;SDS011;42641;59.794;17.616;2023-04-25T13:17:46;2.43;;;2.20;;
56770;SDS011;42641;59.794;17.616;2023-04-25T13:20:12;2.73;;;2.47;;
56770;SDS011;42641;59.794;17.616;2023-04-25T13:22:40;2.90;;;2.60;;
56770;SDS011;42641;59.794;17.616;2023-04-25T13:25:07;2.80;;;2.30;;
56770;SDS011;42641;59.794;17.616;2023-04-25T13:27:34;2.57;;;2.20;;
56770;SDS011;42641;59.794;17.616;2023-04-25T13:30:05;2.93;;;2.67;;
56770;SDS011;42641;59.794;17.616;2023-04-25T13:32:35;3.87;;;2.97;;
56770;SDS011;42641;59.794;17.616;2023-04-25T13:35:07;3.57;;;2.87;;
56770;SDS011;42641;59.794;17.616;2023-04-25T13:37:35;3.07;;;2.77;;
56770;SDS011;42641;59.794;17.616;2023-04-25T13:40:03;3.40;;;2.60;;
56770;SDS011;42641;59.794;17.616;2023-04-25T13:42:31;3.63;;;2.93;;
56770;SDS011;42641;59.794;17.616;2023-04-25T13:44:58;3.17;;;2.63;;
56770;SDS011;42641;59.794;17.616;2023-04-25T13:47:25;3.43;;;2.90;;
56770;SDS011;42641;59.794;17.616;2023-04-25T13:49:51;4.00;;;3.20;;
56770;SDS011;42641;59.794;17.616;2023-04-25T13:52:18;3.83;;;2.97;;
56770;SDS011;42641;59.794;17.616;2023-04-25T13:54:44;3.77;;;3.37;;
56770;SDS011;42641;59.794;17.616;2023-04-25T13:57:11;3.80;;;2.77;;
56770;SDS011;42641;59.794;17.616;2023-04-25T13:59:38;3.10;;;2.80;;
56770;SDS011;42641;59.794;17.616;2023-04-25T14:02:06;3.60;;;2.90;;
56770;SDS011;42641;59.794;17.616;2023-04-25T14:04:33;3.20;;;2.90;;
56770;SDS011;42641;59.794;17.616;2023-04-25T14:06:59;5.47;;;4.00;;
56770;SDS011;42641;59.794;17.616;2023-04-25T14:09:27;4.37;;;3.40;;
56770;SDS011;42641;59.794;17.616;2023-04-25T14:11:54;3.50;;;3.20;;
56770;SDS011;42641;59.794;17.616;2023-04-25T14:14:22;4.07;;;3.33;;
56770;SDS011;42641;59.794;17.616;2023-04-25T14:16:49;5.53;;;3.70;;
56770;SDS011;42641;59.794;17.616;2023-04-25T14:19:17;4.37;;;3.60;;
56770;SDS011;42641;59.794;17.616;2023-04-25T14:21:44;4.30;;;3.30;;
56770;SDS011;42641;59.794;17.616;2023-04-25T14:24:12;3.80;;;3.40;;
56770;SDS011;42641;59.794;17.616;2023-04-25T14:26:39;4.47;;;3.90;;
56770;SDS011;42641;59.794;17.616;2023-04-25T14:29:06;4.37;;;3.80;;
56770;SDS011;42641;59.794;17.616;2023-04-25T14:31:34;4.00;;;3.60;;
56770;SDS011;42641;59.794;17.616;2023-04-25T14:34:02;6.73;;;3.93;;
56770;SDS011;42641;59.794;17.616;2023-04-25T14:36:28;5.57;;;4.10;;
56770;SDS011;42641;59.794;17.616;2023-04-25T14:38:56;4.97;;;4.10;;
56770;SDS011;42641;59.794;17.616;2023-04-25T14:41:23;4.43;;;3.93;;
56770;SDS011;42641;59.794;17.616;2023-04-25T14:43:50;4.53;;;4.13;;
56770;SDS011;42641;59.794;17.616;2023-04-25T14:46:17;4.50;;;4.10;;
56770;SDS011;42641;59.794;17.616;2023-04-25T14:48:43;4.20;;;3.80;;
56770;SDS011;42641;59.794;17.616;2023-04-25T14:51:11;5.10;;;4.60;;
56770;SDS011;42641;59.794;17.616;2023-04-25T14:53:37;4.23;;;3.80;;
56770;SDS011;42641;59.794;17.616;2023-04-25T14:56:06;4.57;;;3.97;;
56770;SDS011;42641;59.794;17.616;2023-04-25T14:58:33;5.00;;;4.33;;
56770;SDS011;42641;59.794;17.616;2023-04-25T15:01:00;4.77;;;3.80;;
56770;SDS011;42641;59.794;17.616;2023-04-25T15:03:26;4.50;;;3.80;;
56770;SDS011;42641;59.794;17.616;2023-04-25T15:05:54;4.43;;;3.80;;